createdAt,value
2024-02-13T00:00:40.869Z,49.90
2024-02-13T00:03:34.286Z,49.90
2024-02-13T00:06:28.491Z,49.90
2024-02-13T00:09:21.603Z,49.90
2024-02-13T00:12:16.370Z,49.90
2024-02-13T00:15:11.637Z,49.90
2024-02-13T00:18:07.115Z,49.90
2024-02-13T00:21:01.074Z,49.90
2024-02-13T00:23:55.270Z,49.90
2024-02-13T00:26:48.758Z,49.90
2024-02-13T00:29:45.849Z,49.90
2024-02-13T00:32:39.546Z,49.80
2024-02-13T00:35:32.600Z,49.90
2024-02-13T00:38:25.538Z,49.90
2024-02-13T00:41:18.638Z,49.90
2024-02-13T00:44:13.175Z,49.90
2024-02-13T00:47:09.490Z,49.90
2024-02-13T00:50:02.862Z,49.90
2024-02-13T00:52:56.185Z,49.90
2024-02-13T00:55:50.629Z,50.00
2024-02-13T00:58:44.976Z,50.00
2024-02-13T01:01:38.837Z,50.00
2024-02-13T01:04:33.044Z,50.00
2024-02-13T01:07:27.309Z,50.00
2024-02-13T01:10:20.726Z,49.90
2024-02-13T01:13:13.986Z,49.80
2024-02-13T01:16:07.989Z,49.90
2024-02-13T01:19:01.856Z,49.90
2024-02-13T01:21:56.793Z,49.90
2024-02-13T01:24:50.671Z,49.90
2024-02-13T01:27:43.865Z,49.80
2024-02-13T01:30:36.868Z,49.80
2024-02-13T01:33:30.573Z,49.80
2024-02-13T01:36:23.616Z,49.80
2024-02-13T01:39:18.175Z,49.80
2024-02-13T01:42:12.525Z,49.80
2024-02-13T01:45:07.908Z,49.80
2024-02-13T01:48:03.487Z,49.70
2024-02-13T01:51:01.443Z,49.80
2024-02-13T01:53:55.297Z,49.70
2024-02-13T01:56:50.392Z,49.70
2024-02-13T01:59:44.762Z,49.70
2024-02-13T02:02:38.326Z,49.70
2024-02-13T02:05:32.846Z,49.70
2024-02-13T02:08:26.757Z,49.70
2024-02-13T02:11:19.712Z,49.60
2024-02-13T02:14:14.514Z,49.60
2024-02-13T02:17:11.381Z,49.70
2024-02-13T02:20:05.459Z,49.60
2024-02-13T02:22:58.939Z,49.60
2024-02-13T02:25:53.060Z,49.60
2024-02-13T02:28:46.993Z,49.60
2024-02-13T02:31:40.341Z,49.70
2024-02-13T02:34:33.458Z,49.70
2024-02-13T02:37:27.356Z,49.70
2024-02-13T02:40:20.970Z,49.70
2024-02-13T02:43:15.279Z,49.60
2024-02-13T02:46:09.332Z,49.70
2024-02-13T02:49:02.998Z,49.60
2024-02-13T02:51:55.571Z,49.60
2024-02-13T02:54:49.555Z,49.60
2024-02-13T02:57:43.278Z,49.50
2024-02-13T03:00:38.086Z,49.50
2024-02-13T03:03:32.574Z,49.60
2024-02-13T03:06:26.000Z,49.50
2024-02-13T03:09:18.770Z,49.50
2024-02-13T03:12:12.502Z,49.50
2024-02-13T03:15:07.493Z,49.50
2024-02-13T03:18:05.037Z,49.50
2024-02-13T03:20:57.640Z,49.50
2024-02-13T03:23:51.875Z,49.40
2024-02-13T03:26:45.088Z,49.50
2024-02-13T03:29:38.321Z,49.40
2024-02-13T03:32:32.863Z,49.40
2024-02-13T03:35:27.496Z,49.40
2024-02-13T03:38:21.143Z,49.40
2024-02-13T03:41:14.817Z,49.40
2024-02-13T03:44:11.481Z,49.40
2024-02-13T03:47:06.554Z,49.30
2024-02-13T03:49:59.781Z,49.40
2024-02-13T03:52:54.496Z,49.30
2024-02-13T03:55:48.663Z,49.30
2024-02-13T03:58:42.789Z,49.30
2024-02-13T04:01:35.946Z,49.20
2024-02-13T04:04:28.797Z,49.20
2024-02-13T04:07:21.847Z,49.20
2024-02-13T04:10:16.250Z,49.20
2024-02-13T04:13:09.982Z,49.20
2024-02-13T04:16:03.591Z,49.20
2024-02-13T04:18:56.902Z,49.20
2024-02-13T04:21:51.731Z,49.20
2024-02-13T04:24:44.909Z,49.20
2024-02-13T04:27:39.931Z,49.20
2024-02-13T04:30:33.158Z,49.20
2024-02-13T04:33:27.040Z,49.20
2024-02-13T04:36:20.145Z,49.20
2024-02-13T04:39:12.913Z,49.20
2024-02-13T04:42:06.305Z,49.20
2024-02-13T04:45:01.577Z,49.20
2024-02-13T04:47:54.652Z,49.20
2024-02-13T04:50:47.968Z,49.20
2024-02-13T04:53:41.080Z,49.10
2024-02-13T04:56:34.792Z,49.10
2024-02-13T04:59:36.039Z,49.10
2024-02-13T05:02:33.842Z,49.10
2024-02-13T05:05:44.163Z,49.20
2024-02-13T05:08:37.415Z,49.10
2024-02-13T05:11:31.069Z,49.10
2024-02-13T05:14:24.355Z,49.10
2024-02-13T05:17:17.874Z,49.10
2024-02-13T05:20:15.141Z,49.10
2024-02-13T05:23:11.739Z,49.10
2024-02-13T05:26:08.896Z,49.10
2024-02-13T05:29:04.609Z,49.10
2024-02-13T05:32:00.789Z,49.00
2024-02-13T05:34:54.910Z,49.10
2024-02-13T05:37:53.287Z,49.10
2024-02-13T05:40:46.764Z,49.10
2024-02-13T05:43:42.609Z,49.00
2024-02-13T05:46:36.488Z,49.00
2024-02-13T05:49:31.226Z,49.10
2024-02-13T05:52:25.750Z,49.10
2024-02-13T05:55:20.317Z,49.00
2024-02-13T05:58:14.113Z,49.00
2024-02-13T06:01:09.359Z,49.00
2024-02-13T06:04:06.977Z,49.60
2024-02-13T06:07:00.186Z,49.00
2024-02-13T06:09:52.879Z,49.10
2024-02-13T06:12:48.520Z,49.30
2024-02-13T06:15:41.865Z,49.50
2024-02-13T06:18:36.003Z,49.70
2024-02-13T06:21:29.783Z,49.80
2024-02-13T06:24:24.963Z,50.00
2024-02-13T06:27:18.105Z,50.20
2024-02-13T06:30:13.985Z,50.40
2024-02-13T06:33:07.528Z,50.50
2024-02-13T06:36:01.026Z,50.70
2024-02-13T06:38:54.115Z,50.80
2024-02-13T06:41:47.334Z,51.00
2024-02-13T06:44:42.068Z,51.10
2024-02-13T06:47:36.189Z,51.20
2024-02-13T06:50:29.096Z,51.30
2024-02-13T06:53:22.111Z,51.40
2024-02-13T06:56:15.888Z,51.50
2024-02-13T06:59:09.713Z,51.60
2024-02-13T07:02:03.091Z,51.70
2024-02-13T07:04:59.109Z,51.80
2024-02-13T07:07:52.213Z,51.90
2024-02-13T07:10:45.038Z,52.00
2024-02-13T07:13:38.795Z,52.20
2024-02-13T07:16:39.402Z,52.20
2024-02-13T07:19:34.157Z,52.30
2024-02-13T07:22:29.329Z,52.30
2024-02-13T07:25:22.504Z,52.40
2024-02-13T07:28:17.538Z,52.40
2024-02-13T07:31:12.034Z,52.50
2024-02-13T07:34:06.026Z,52.60
2024-02-13T07:36:59.064Z,52.60
2024-02-13T07:39:56.119Z,52.70
2024-02-13T07:42:49.698Z,52.70
2024-02-13T07:45:43.573Z,53.10
2024-02-13T07:48:37.310Z,53.00
2024-02-13T07:51:31.679Z,52.90
2024-02-13T07:54:29.770Z,52.80
2024-02-13T07:57:25.112Z,52.70
2024-02-13T08:00:21.878Z,52.70
2024-02-13T08:03:17.102Z,52.70
2024-02-13T08:06:10.628Z,52.70
2024-02-13T08:09:04.338Z,52.60
2024-02-13T08:11:56.962Z,52.70
2024-02-13T08:14:52.255Z,52.70
2024-02-13T08:17:45.963Z,52.60
2024-02-13T08:20:40.349Z,52.60
2024-02-13T08:23:34.230Z,52.60
2024-02-13T08:26:28.339Z,52.70
2024-02-13T08:29:21.735Z,53.00
2024-02-13T08:32:17.200Z,53.20
2024-02-13T08:35:11.330Z,53.30
2024-02-13T08:38:05.372Z,53.30
2024-02-13T08:40:59.364Z,53.40
2024-02-13T08:43:52.252Z,53.70
2024-02-13T08:46:45.248Z,53.80
2024-02-13T08:49:40.946Z,53.90
2024-02-13T08:52:34.108Z,54.10
2024-02-13T08:55:29.256Z,54.10
2024-02-13T08:58:21.868Z,54.30
2024-02-13T09:01:15.382Z,54.40
2024-02-13T09:04:08.796Z,54.60
2024-02-13T09:07:03.853Z,54.80
2024-02-13T09:09:57.392Z,54.80
2024-02-13T09:12:51.183Z,54.70
2024-02-13T09:15:44.284Z,54.70
2024-02-13T09:18:37.576Z,54.70
2024-02-13T09:21:31.909Z,54.70
2024-02-13T09:24:28.935Z,54.70
2024-02-13T09:27:22.131Z,54.70
2024-02-13T09:30:16.524Z,54.70
2024-02-13T09:33:10.890Z,54.70
2024-02-13T09:38:59.751Z,54.70
2024-02-13T09:41:55.278Z,54.70
2024-02-13T09:44:48.576Z,54.70
2024-02-13T09:47:42.837Z,54.70
2024-02-13T09:50:40.283Z,54.50
2024-02-13T09:53:35.456Z,53.80
2024-02-13T09:56:29.223Z,53.00
2024-02-13T09:59:25.336Z,52.60
2024-02-13T10:02:19.798Z,52.30
2024-02-13T10:05:15.420Z,52.90
2024-02-13T10:08:09.941Z,52.80
2024-02-13T10:11:10.009Z,51.20
2024-02-13T10:14:04.176Z,48.00
2024-02-13T10:16:59.693Z,45.40
2024-02-13T10:19:53.530Z,44.70
2024-02-13T10:22:50.049Z,41.20
2024-02-13T10:25:45.026Z,42.40
2024-02-13T10:28:43.296Z,42.70
2024-02-13T10:31:38.953Z,43.20
2024-02-13T10:34:38.842Z,43.70
2024-02-13T10:37:32.851Z,44.30
2024-02-13T10:40:28.974Z,44.60
2024-02-13T10:43:24.216Z,45.00
2024-02-13T10:46:17.490Z,45.50
2024-02-13T10:49:22.732Z,45.90
2024-02-13T10:52:18.829Z,46.10
2024-02-13T10:55:13.505Z,46.40
2024-02-13T10:58:17.163Z,46.70
2024-02-13T11:01:19.774Z,46.90
2024-02-13T11:04:18.618Z,47.10
2024-02-13T11:07:13.416Z,47.40
2024-02-13T11:10:10.187Z,47.50
2024-02-13T11:13:06.160Z,47.70
2024-02-13T11:15:59.473Z,47.80
2024-02-13T11:18:56.416Z,48.60
2024-02-13T11:21:54.540Z,48.20
2024-02-13T11:24:52.381Z,48.50
2024-02-13T11:27:48.422Z,48.60
2024-02-13T11:30:42.604Z,48.70
2024-02-13T11:33:38.666Z,48.80
2024-02-13T11:36:33.727Z,48.90
2024-02-13T11:39:28.093Z,49.00
2024-02-13T11:42:23.232Z,48.70
2024-02-13T11:45:23.152Z,48.30
2024-02-13T11:48:17.605Z,47.90
2024-02-13T11:51:11.729Z,47.50
2024-02-13T11:54:07.826Z,46.90
2024-02-13T11:57:02.405Z,46.50
2024-02-13T12:00:00.958Z,46.10
2024-02-13T12:02:56.539Z,45.60
2024-02-13T12:05:50.262Z,45.40
2024-02-13T12:08:45.793Z,44.90
2024-02-13T12:11:40.085Z,44.80
2024-02-13T12:14:34.138Z,44.60
2024-02-13T12:17:27.754Z,44.60
2024-02-13T12:20:29.294Z,44.40
2024-02-13T12:23:22.543Z,44.40
2024-02-13T12:26:19.069Z,44.10
2024-02-13T12:29:16.436Z,44.00
2024-02-13T12:32:10.939Z,43.90
2024-02-13T12:35:12.244Z,43.80
2024-02-13T12:38:15.023Z,43.50
2024-02-13T12:41:08.805Z,43.80
2024-02-13T12:44:05.150Z,44.00
2024-02-13T12:46:58.358Z,44.10
2024-02-13T12:49:52.106Z,44.70
2024-02-13T12:52:45.786Z,44.70
2024-02-13T12:55:41.888Z,44.60
2024-02-13T12:58:36.295Z,44.50
2024-02-13T13:01:29.801Z,44.60
2024-02-13T13:04:24.251Z,44.50
2024-02-13T13:07:17.131Z,44.20
2024-02-13T13:10:14.515Z,44.10
2024-02-13T13:13:09.015Z,44.00
2024-02-13T13:16:03.892Z,44.80
2024-02-13T13:18:58.608Z,44.20
2024-02-13T13:21:53.457Z,44.00
2024-02-13T13:24:46.255Z,43.80
2024-02-13T13:27:39.413Z,43.70
2024-02-13T13:30:34.127Z,43.80
2024-02-13T13:33:31.031Z,43.80
2024-02-13T13:36:26.443Z,43.80
2024-02-13T13:39:21.880Z,43.90
2024-02-13T13:42:18.879Z,44.20
2024-02-13T13:45:15.628Z,44.40
2024-02-13T13:48:17.977Z,44.40
2024-02-13T13:51:11.905Z,44.70
2024-02-13T13:54:07.174Z,45.00
2024-02-13T13:57:00.210Z,45.00
2024-02-13T13:59:54.222Z,45.10
2024-02-13T14:02:48.255Z,45.30
2024-02-13T14:05:45.374Z,45.40
2024-02-13T14:08:39.376Z,45.50
2024-02-13T14:11:33.581Z,45.50
2024-02-13T14:14:26.817Z,45.60
2024-02-13T14:17:21.265Z,45.80
2024-02-13T14:20:15.597Z,45.70
2024-02-13T14:23:11.685Z,45.60
2024-02-13T14:26:05.475Z,45.40
2024-02-13T14:28:59.183Z,45.40
2024-02-13T14:31:52.619Z,45.40
2024-02-13T14:34:47.283Z,45.30
2024-02-13T14:37:40.368Z,45.40
2024-02-13T14:40:38.733Z,45.40
2024-02-13T14:43:32.919Z,45.40
2024-02-13T14:46:26.595Z,45.50
2024-02-13T14:49:21.355Z,45.50
2024-02-13T14:52:15.708Z,45.70
2024-02-13T14:55:10.455Z,45.80
2024-02-13T14:58:14.634Z,45.80
2024-02-13T15:01:17.651Z,46.50
2024-02-13T15:04:13.580Z,45.90
2024-02-13T15:07:08.916Z,46.00
2024-02-13T15:10:03.000Z,46.00
2024-02-13T15:12:58.151Z,46.00
2024-02-13T15:15:53.886Z,46.10
2024-02-13T15:18:49.893Z,46.00
2024-02-13T15:21:45.294Z,46.10
2024-02-13T15:24:40.168Z,46.20
2024-02-13T15:27:34.448Z,46.20
2024-02-13T15:30:27.281Z,46.20
2024-02-13T15:33:26.818Z,46.30
2024-02-13T15:36:39.717Z,46.30
2024-02-13T15:39:51.049Z,46.40
2024-02-13T15:43:02.900Z,46.40
2024-02-13T15:46:13.574Z,46.40
2024-02-13T15:49:07.544Z,46.50
2024-02-13T15:52:01.877Z,46.50
2024-02-13T15:54:55.942Z,46.60
2024-02-13T15:57:49.396Z,46.60
2024-02-13T16:00:43.407Z,47.00
2024-02-13T16:03:40.247Z,46.50
2024-02-13T16:06:37.609Z,46.40
2024-02-13T16:09:32.112Z,46.50
2024-02-13T16:12:25.226Z,46.60
2024-02-13T16:15:20.196Z,46.70
2024-02-13T16:18:13.917Z,46.60
2024-02-13T16:21:07.964Z,46.50
2024-02-13T16:24:05.244Z,46.80
2024-02-13T16:27:00.433Z,47.60
2024-02-13T16:29:53.303Z,47.90
2024-02-13T16:32:46.901Z,48.00
2024-02-13T16:35:40.549Z,48.10
2024-02-13T16:38:34.118Z,47.20
2024-02-13T16:41:29.771Z,47.00
2024-02-13T16:44:24.525Z,46.80
2024-02-13T16:47:17.813Z,48.10
2024-02-13T16:50:15.568Z,48.40
2024-02-13T16:53:09.544Z,48.70
2024-02-13T16:56:04.356Z,49.00
2024-02-13T16:58:59.004Z,49.20
2024-02-13T17:01:54.005Z,49.60
2024-02-13T17:04:47.547Z,49.80
2024-02-13T17:07:41.320Z,49.90
2024-02-13T17:10:34.424Z,50.00
2024-02-13T17:13:29.241Z,50.00
2024-02-13T17:16:23.827Z,50.30
2024-02-13T17:19:18.619Z,50.40
2024-02-13T17:22:12.390Z,50.60
2024-02-13T17:25:07.767Z,50.60
2024-02-13T17:28:01.219Z,50.80
2024-02-13T17:30:57.409Z,50.70
2024-02-13T17:33:51.851Z,50.80
2024-02-13T17:36:45.975Z,51.10
2024-02-13T17:39:40.172Z,51.10
2024-02-13T17:42:34.576Z,51.20
2024-02-13T17:45:27.352Z,51.30
2024-02-13T17:48:21.619Z,51.40
2024-02-13T17:51:15.811Z,51.60
2024-02-13T17:54:08.682Z,51.60
2024-02-13T17:57:02.945Z,51.70
2024-02-13T17:59:58.374Z,51.80
2024-02-13T18:02:52.838Z,51.80
2024-02-13T18:05:46.909Z,51.90
2024-02-13T18:08:42.272Z,52.00
2024-02-13T18:11:35.481Z,52.00
2024-02-13T18:14:29.228Z,52.20
2024-02-13T18:17:27.250Z,52.30
2024-02-13T18:20:23.683Z,52.30
2024-02-13T18:23:18.113Z,52.40
2024-02-13T18:26:13.014Z,52.40
2024-02-13T18:29:07.039Z,52.40
2024-02-13T18:32:00.292Z,52.20
2024-02-13T18:34:55.075Z,51.00
2024-02-13T18:37:50.775Z,50.30
2024-02-13T18:40:44.499Z,49.60
2024-02-13T18:53:43.271Z,50.30
2024-02-13T18:56:38.793Z,49.70
2024-02-13T18:59:33.435Z,49.50
2024-02-13T19:02:26.903Z,49.40
2024-02-13T19:05:21.063Z,49.30
2024-02-13T19:08:16.794Z,49.30
2024-02-13T19:11:11.510Z,49.30
2024-02-13T19:14:06.661Z,49.30
2024-02-13T19:17:00.043Z,49.30
2024-02-13T19:19:56.960Z,49.30
2024-02-13T19:22:53.405Z,49.30
2024-02-13T19:25:47.704Z,49.30
2024-02-13T19:28:42.337Z,49.30
2024-02-13T19:31:35.775Z,49.40
2024-02-13T19:34:28.960Z,49.30
2024-02-13T19:37:22.320Z,49.40
2024-02-13T19:40:16.409Z,49.40
2024-02-13T19:43:09.728Z,49.40
2024-02-13T19:46:06.281Z,49.40
2024-02-13T19:48:59.724Z,49.40
2024-02-13T19:51:53.110Z,49.40
2024-02-13T19:54:47.026Z,49.40
2024-02-13T19:57:40.618Z,49.40
2024-02-13T20:00:34.331Z,49.40
2024-02-13T20:03:30.041Z,49.40
2024-02-13T20:06:24.560Z,49.50
2024-02-13T20:09:17.798Z,49.50
2024-02-13T20:12:11.017Z,49.40
2024-02-13T20:15:05.031Z,49.50
2024-02-13T20:17:59.005Z,49.50
2024-02-13T20:20:55.077Z,49.50
2024-02-13T20:23:48.817Z,49.60
2024-02-13T20:26:41.935Z,49.60
2024-02-13T20:29:35.002Z,49.60
2024-02-13T20:32:27.958Z,49.60
2024-02-13T20:35:22.550Z,49.60
2024-02-13T20:38:17.105Z,49.70
2024-02-13T20:41:10.774Z,49.70
2024-02-13T20:44:04.389Z,50.30
2024-02-13T20:46:58.558Z,49.70
2024-02-13T20:49:52.774Z,50.30
2024-02-13T20:52:46.318Z,49.70
2024-02-13T20:55:41.689Z,49.70
2024-02-13T20:58:34.957Z,49.80
2024-02-13T21:01:36.445Z,49.70
2024-02-13T21:04:29.955Z,49.70
2024-02-13T21:07:25.124Z,49.70
2024-02-13T21:10:18.804Z,49.80
2024-02-13T21:13:14.701Z,49.80
2024-02-13T21:16:09.644Z,49.80
2024-02-13T21:19:03.248Z,49.80
2024-02-13T21:22:14.093Z,49.90
2024-02-13T21:25:08.605Z,49.90
2024-02-13T21:28:02.106Z,49.90
2024-02-13T21:30:58.056Z,49.90
2024-02-13T21:33:51.773Z,49.10
2024-02-13T21:36:44.780Z,49.40
2024-02-13T21:39:38.577Z,46.80
2024-02-13T21:42:32.139Z,45.60
2024-02-13T21:45:27.828Z,45.60
2024-02-13T21:48:24.532Z,46.00
2024-02-13T21:51:17.650Z,46.10
2024-02-13T21:54:14.040Z,45.90
2024-02-13T21:57:07.673Z,45.90
2024-02-13T22:00:05.600Z,46.00
2024-02-13T22:03:06.636Z,46.00
2024-02-13T22:06:01.089Z,46.20
2024-02-13T22:08:54.385Z,46.20
2024-02-13T22:11:49.286Z,46.30
2024-02-13T22:14:44.124Z,46.50
2024-02-13T22:17:37.780Z,46.50
2024-02-13T22:20:37.652Z,46.60
2024-02-13T22:23:34.069Z,46.60
2024-02-13T22:26:26.641Z,46.70
2024-02-13T22:29:19.813Z,46.80
2024-02-13T22:32:14.110Z,46.80
2024-02-13T22:35:08.705Z,46.90
2024-02-13T22:38:04.228Z,46.90
2024-02-13T22:40:59.185Z,47.00
2024-02-13T22:43:53.727Z,47.00
2024-02-13T22:46:46.795Z,47.10
2024-02-13T22:49:40.140Z,47.10
2024-02-13T22:52:35.080Z,47.20
2024-02-13T22:55:30.789Z,47.20
2024-02-13T22:58:25.041Z,47.30
2024-02-13T23:01:19.592Z,47.30
2024-02-13T23:04:13.001Z,47.40
2024-02-13T23:07:07.024Z,47.40
2024-02-13T23:09:59.597Z,47.40
2024-02-13T23:12:53.899Z,47.40
2024-02-13T23:15:49.690Z,47.50
2024-02-13T23:18:43.911Z,47.50
2024-02-13T23:21:37.644Z,47.50
2024-02-13T23:24:30.601Z,47.50
2024-02-13T23:27:24.185Z,47.60
2024-02-13T23:30:22.864Z,47.60
2024-02-13T23:33:17.091Z,47.60
2024-02-13T23:36:11.112Z,47.70
2024-02-13T23:39:05.994Z,47.70
2024-02-13T23:41:59.329Z,47.70
2024-02-13T23:44:52.905Z,47.70
2024-02-13T23:47:47.759Z,47.70
2024-02-13T23:50:42.287Z,48.40
2024-02-13T23:53:37.833Z,47.80
2024-02-13T23:56:32.874Z,47.80
2024-02-13T23:59:26.153Z,47.80
